This is the latest recevied weather packets stored in our database for station/object BMCB-34. If no packets are shown the sender has not sent any weather packets the latest 10 day(s).
| Time | Temp. | Humidity | Pressure | Rain* | Wind** | Luminosity | Snow |
|---|---|---|---|---|---|---|---|
| 1777708224 | 13.89° C | 62% | 1016.1 hPa | 0 mm | - | 258 W/m² | - |
| 1777701645 | 11.67° C | 68% | 1016.4 hPa | 0 mm | - | 78 W/m² | - |
| 1777699231 | 10° C | 75% | 1016.8 hPa | 0 mm | - | 34 W/m² | - |
| 1777698030 | 8.89° C | 77% | 1016.7 hPa | 0 mm | - | 34 W/m² | - |
| 1777697423 | 8.89° C | 78% | 1016.6 hPa | 0 mm | - | 22 W/m² | - |
| 1777696824 | 8.33° C | 78% | 1016.6 hPa | 0 mm | - | 14 W/m² | - |
| 1777695634 | 8.33° C | 78% | 1016.5 hPa | 0 mm | - | 6 W/m² | - |
| 1777695035 | 8.33° C | 77% | 1016.5 hPa | 0 mm | - | 2 W/m² | - |
| 1777694435 | 8.89° C | 76% | 1016.4 hPa | 0 mm | - | 0 W/m² | - |
| 1777693829 | 8.89° C | 74% | 1016.4 hPa | 0 mm | - | 0 W/m² | - |
| 1777693228 | 8.89° C | 74% | 1016.5 hPa | 0 mm | - | 0 W/m² | - |
| 1777690832 | 8.89° C | 76% | 1016.8 hPa | 0 mm | - | 0 W/m² | - |
| 1777690229 | 8.33° C | 76% | 1016.6 hPa | 0 mm | - | 0 W/m² | - |
| 1777688427 | 8.89° C | 74% | 1016.6 hPa | 0 mm | - | 0 W/m² | - |
| 1777687840 | 8.89° C | 73% | 1016.6 hPa | 0 mm | - | 0 W/m² | - |
| 1777687231 | 9.44° C | 72% | 1016.6 hPa | 0 mm | - | 0 W/m² | - |
| 1777684232 | 9.44° C | 71% | 1016.8 hPa | 0 mm | - | 0 W/m² | - |
| 1777683630 | 10° C | 71% | 1016.8 hPa | 0 mm | - | 0 W/m² | - |
| 1777671047 | 12.22° C | 61% | 1017.4 hPa | 0 mm | - | 0 W/m² | - |
| 1777671038 | 12.22° C | 61% | 1017.3 hPa | 0 mm | - | 0 W/m² | - |
| 1777667436 | 13.33° C | 56% | 1017 hPa | 0 mm | - | 0 W/m² | - |
| 1777665639 | 13.89° C | 54% | 1017 hPa | 0 mm | - | 0 W/m² | - |
| 1777662046 | 16.11° C | 50% | 1016.6 hPa | 0 mm | - | 0 W/m² | - |
| 1777661437 | 16.67° C | 49% | 1016.6 hPa | 0 mm | - | 6 W/m² | - |
| 1777658446 | 20° C | 41% | 1016.3 hPa | 0 mm | - | 108 W/m² | - |
* Rain latest hour (hover to see other rain measurements)
** Current wind speed in m/s (hover to see current wind gust speed)